Time;durP1;ratioP1;P1;durP2;ratioP2;P2;SDS_P1;SDS_P2;PMS_P1;PMS_P2;Temp;Humidity;BMP_temperature;BMP_pressure;BME280_temperature;BME280_humidity;BME280_pressure;Samples;Min_cycle;Max_cycle;Signal;HPM_P1;HPM_P2
2023/05/19 00:01:27;;;;;;;16.10;10.10;;;;;;;19.52;39.83;100576.71;108088;1287;21997;-58
2023/05/19 00:03:56;;;;;;;13.50;10.80;;;;;;;19.52;39.77;100581.54;108189;1287;21972;-59
2023/05/19 00:06:24;;;;;;;14.00;10.10;;;;;;;19.50;39.78;100582.69;108226;1287;22122;-59
2023/05/19 00:08:54;;;;;;;14.20;10.60;;;;;;;19.48;39.84;100588.80;108157;1287;21958;-59
2023/05/19 00:11:21;;;;;;;13.90;10.30;;;;;;;19.46;39.89;100590.30;107887;1287;21990;-59
2023/05/19 00:13:49;;;;;;;13.00;10.40;;;;;;;19.42;39.96;100589.82;108179;1287;21999;-58
2023/05/19 00:16:15;;;;;;;15.90;11.00;;;;;;;19.37;39.96;100596.27;108130;1287;21987;-59
2023/05/19 00:18:42;;;;;;;16.30;11.30;;;;;;;19.33;39.93;100595.37;108130;1287;21989;-58
2023/05/19 00:21:08;;;;;;;15.60;11.20;;;;;;;19.31;39.96;100592.77;108143;1287;22005;-58
2023/05/19 00:23:35;;;;;;;13.90;11.40;;;;;;;19.30;39.95;100584.67;108162;1287;22215;-59
2023/05/19 00:26:00;;;;;;;14.00;11.20;;;;;;;19.26;39.93;100580.37;108109;1287;21992;-60
2023/05/19 00:28:26;;;;;;;14.10;11.60;;;;;;;19.23;39.96;100581.42;108094;1287;21990;-58
2023/05/19 00:30:52;;;;;;;13.90;10.70;;;;;;;19.19;39.98;100590.48;108122;1287;21990;-58
2023/05/19 00:33:18;;;;;;;16.40;11.90;;;;;;;19.15;40.00;100591.02;108084;1287;21986;-58
2023/05/19 00:35:43;;;;;;;15.40;10.90;;;;;;;19.09;40.14;100587.00;108088;1287;23068;-58
2023/05/19 00:38:09;;;;;;;13.80;10.10;;;;;;;19.03;40.12;100585.16;108114;1283;21986;-59
2023/05/19 00:40:35;;;;;;;13.80;10.00;;;;;;;18.98;40.17;100585.02;108087;1287;22454;-59
2023/05/19 00:43:01;;;;;;;16.10;9.90;;;;;;;18.96;40.16;100586.52;108154;1287;22099;-60
2023/05/19 00:45:27;;;;;;;14.00;10.30;;;;;;;18.94;40.33;100589.08;108110;1287;21981;-59
2023/05/19 00:47:53;;;;;;;16.60;11.10;;;;;;;18.91;40.30;100587.80;108100;1288;21993;-59
2023/05/19 00:50:19;;;;;;;18.30;11.30;;;;;;;18.87;40.31;100587.22;108095;1287;21986;-59
2023/05/19 00:52:44;;;;;;;13.50;11.20;;;;;;;18.83;40.45;100586.17;108118;1287;21995;-59
2023/05/19 00:55:10;;;;;;;14.40;11.50;;;;;;;18.77;40.55;100586.42;108124;1287;22012;-59
2023/05/19 00:57:36;;;;;;;15.10;11.60;;;;;;;18.70;40.72;100590.27;108116;1287;21994;-59
2023/05/19 01:00:04;;;;;;;17.30;11.30;;;;;;;18.65;40.72;100589.59;108086;1287;21987;-59
2023/05/19 01:02:31;;;;;;;16.00;11.70;;;;;;;18.63;40.72;100591.62;108151;1287;21992;-59
2023/05/19 01:04:57;;;;;;;14.40;11.20;;;;;;;18.64;40.73;100592.48;108087;1287;21990;-59
2023/05/19 01:07:24;;;;;;;14.80;10.70;;;;;;;18.63;40.73;100601.05;107869;1288;21996;-59
2023/05/19 01:09:50;;;;;;;12.30;10.80;;;;;;;18.64;40.70;100602.98;107954;1287;21994;-59
2023/05/19 01:12:16;;;;;;;12.20;10.10;;;;;;;18.65;40.79;100599.93;108120;1287;22353;-60
2023/05/19 01:14:42;;;;;;;13.70;11.10;;;;;;;18.66;40.89;100594.70;107831;1287;21999;-58
2023/05/19 01:17:33;;;;;;;14.80;10.90;;;;;;;18.67;40.88;100592.02;108077;1287;22027;-61
2023/05/19 01:20:21;;;;;;;15.80;10.90;;;;;;;18.66;40.81;100590.09;108106;1287;22894;-59
2023/05/19 01:23:09;;;;;;;13.10;10.90;;;;;;;18.65;40.99;100590.48;108041;1287;21993;-59
2023/05/19 01:25:50;;;;;;;14.20;10.80;;;;;;;18.64;41.17;100593.39;108084;1287;22048;-59
2023/05/19 01:28:41;;;;;;;16.80;11.60;;;;;;;18.60;41.06;100595.66;108102;1287;21987;-59
2023/05/19 01:31:07;;;;;;;17.40;11.40;;;;;;;18.60;41.10;100596.05;105124;1287;1003069;-59
2023/05/19 01:33:33;;;;;;;13.70;10.80;;;;;;;18.59;41.16;100597.13;107856;1287;22030;-59
2023/05/19 01:35:59;;;;;;;16.40;11.80;;;;;;;18.61;41.16;100598.67;107793;1288;22007;-60
2023/05/19 01:38:25;;;;;;;15.80;10.40;;;;;;;18.63;41.09;100600.52;108133;1287;21990;-59
2023/05/19 01:40:50;;;;;;;14.30;10.20;;;;;;;18.67;41.26;100597.51;107765;1287;21991;-59
2023/05/19 01:43:19;;;;;;;15.10;9.20;;;;;;;18.72;41.29;100596.06;108121;1287;22457;-59
2023/05/19 01:45:45;;;;;;;15.90;10.70;;;;;;;18.79;41.44;100594.35;108145;1287;21999;-59
2023/05/19 01:48:11;;;;;;;18.40;10.70;;;;;;;18.86;41.42;100592.07;107801;1288;21992;-59
2023/05/19 01:50:37;;;;;;;17.00;10.90;;;;;;;18.95;41.34;100592.05;107730;1287;22030;-59
2023/05/19 01:53:03;;;;;;;20.40;12.10;;;;;;;19.04;41.36;100590.46;108118;1287;22052;-60
2023/05/19 01:55:29;;;;;;;13.30;11.00;;;;;;;19.10;41.42;100588.77;108069;1287;21991;-58
2023/05/19 01:58:18;;;;;;;14.80;10.40;;;;;;;19.17;41.41;100593.44;106637;1287;1003211;-60
2023/05/19 02:01:03;;;;;;;15.00;10.70;;;;;;;19.25;41.39;100595.92;108094;1287;22003;-59
2023/05/19 02:03:55;;;;;;;15.00;11.40;;;;;;;19.31;41.33;100595.47;108088;1287;21994;-59
2023/05/19 02:06:32;;;;;;;14.90;11.40;;;;;;;19.38;41.21;100600.31;108049;1287;21990;-59
2023/05/19 02:09:10;;;;;;;16.90;11.30;;;;;;;19.43;41.28;100598.63;108245;1287;23615;-59
2023/05/19 02:11:41;;;;;;;14.80;11.10;;;;;;;19.48;41.29;100601.45;108163;1287;21989;-58
2023/05/19 02:14:14;;;;;;;15.00;11.20;;;;;;;19.51;41.12;100600.79;108065;1284;21995;-59
2023/05/19 02:16:42;;;;;;;17.30;11.50;;;;;;;19.54;41.05;100601.02;108091;1277;23069;-59
2023/05/19 02:19:29;;;;;;;13.10;10.00;;;;;;;19.58;41.06;100599.20;108124;1286;21990;-58
2023/05/19 02:21:55;;;;;;;19.60;11.00;;;;;;;19.61;41.08;100603.69;108136;1287;21990;-57
2023/05/19 02:24:21;;;;;;;16.10;10.70;;;;;;;19.63;41.24;100605.40;108112;1287;21997;-59
2023/05/19 02:26:51;;;;;;;17.30;10.80;;;;;;;19.64;41.05;100608.58;107962;1287;22107;-59
2023/05/19 02:29:17;;;;;;;17.40;10.10;;;;;;;19.66;41.01;100612.21;107898;1287;23702;-60
2023/05/19 02:31:43;;;;;;;18.40;10.80;;;;;;;19.69;40.97;100618.14;108071;1283;23630;-59
2023/05/19 02:34:09;;;;;;;22.30;11.40;;;;;;;19.73;40.93;100615.61;108108;1288;21966;-59
2023/05/19 02:36:37;;;;;;;20.00;11.40;;;;;;;19.78;40.91;100615.94;108124;1287;22000;-59
2023/05/19 02:39:03;;;;;;;17.90;11.20;;;;;;;19.82;40.96;100616.45;108092;1287;21987;-57
2023/05/19 02:41:29;;;;;;;21.90;12.40;;;;;;;19.84;40.79;100615.82;108106;1287;21998;-59
2023/05/19 02:43:55;;;;;;;16.70;10.90;;;;;;;19.85;40.84;100614.16;108204;1287;21995;-59
2023/05/19 02:46:20;;;;;;;19.60;10.50;;;;;;;19.88;40.76;100621.00;108089;1287;21990;-57
2023/05/19 02:48:46;;;;;;;20.80;11.50;;;;;;;19.92;40.78;100624.92;108070;1287;21991;-59
2023/05/19 02:51:11;;;;;;;17.60;10.80;;;;;;;19.95;40.77;100631.17;108091;1288;21991;-61
2023/05/19 02:53:37;;;;;;;17.70;10.60;;;;;;;19.97;40.76;100636.42;108221;1287;21989;-58
2023/05/19 02:56:03;;;;;;;18.90;10.70;;;;;;;20.00;40.65;100635.25;108072;1283;21995;-60
2023/05/19 02:58:29;;;;;;;16.90;10.40;;;;;;;20.00;40.69;100636.62;108103;1287;22091;-61
2023/05/19 03:00:55;;;;;;;17.70;11.40;;;;;;;20.00;40.73;100643.41;108095;1287;22257;-59
2023/05/19 03:03:21;;;;;;;22.60;11.50;;;;;;;20.01;40.81;100647.83;108066;1287;21990;-58
2023/05/19 03:05:47;;;;;;;26.00;11.00;;;;;;;20.02;40.94;100649.91;108052;1288;21973;-60
2023/05/19 03:08:13;;;;;;;19.50;10.90;;;;;;;20.06;40.70;100646.33;108059;1287;21998;-59
2023/05/19 03:10:38;;;;;;;16.40;10.10;;;;;;;20.05;40.52;100644.06;108075;1288;22011;-59
2023/05/19 03:13:04;;;;;;;16.20;11.10;;;;;;;20.01;40.58;100649.24;108114;1287;21987;-59
2023/05/19 03:15:31;;;;;;;15.00;11.30;;;;;;;19.98;40.72;100651.52;108078;1287;22012;-60
2023/05/19 03:17:57;;;;;;;14.20;11.10;;;;;;;19.96;40.84;100654.84;108125;1288;21995;-60
2023/05/19 03:20:23;;;;;;;15.80;10.80;;;;;;;19.93;40.82;100652.99;108076;1287;21986;-58
2023/05/19 03:22:49;;;;;;;18.30;11.00;;;;;;;19.93;40.94;100651.94;108060;1287;21991;-60
2023/05/19 03:25:15;;;;;;;14.20;10.40;;;;;;;19.94;40.95;100655.10;108112;1287;22727;-59
2023/05/19 03:27:41;;;;;;;13.30;10.90;;;;;;;19.95;40.93;100654.69;108070;1287;22002;-60
2023/05/19 03:30:08;;;;;;;15.50;11.20;;;;;;;19.96;41.05;100653.74;108124;1287;22003;-59
2023/05/19 03:32:37;;;;;;;13.90;11.20;;;;;;;19.99;41.07;100659.48;108163;1287;21992;-59
2023/05/19 03:35:04;;;;;;;14.70;11.00;;;;;;;20.02;41.17;100659.00;108125;1287;22463;-59
2023/05/19 03:37:31;;;;;;;16.50;10.90;;;;;;;20.06;41.19;100655.43;108160;1287;21987;-59
2023/05/19 03:39:58;;;;;;;17.20;10.90;;;;;;;20.09;41.17;100659.91;108163;1287;21995;-59
2023/05/19 03:42:24;;;;;;;15.10;9.70;;;;;;;20.13;41.24;100659.37;108206;1287;21984;-59
2023/05/19 03:44:49;;;;;;;14.00;8.70;;;;;;;20.18;41.25;100660.38;108205;1287;21985;-61
2023/05/19 03:47:15;;;;;;;15.50;9.70;;;;;;;20.25;41.35;100658.98;108267;1287;21986;-61
2023/05/19 03:49:41;;;;;;;14.10;10.00;;;;;;;20.33;41.31;100661.79;108168;1287;22030;-59
2023/05/19 03:52:06;;;;;;;14.50;10.30;;;;;;;20.42;41.54;100663.30;108126;1287;22008;-59
2023/05/19 03:54:33;;;;;;;13.50;11.10;;;;;;;20.54;41.56;100664.16;108090;1287;21996;-59
2023/05/19 03:56:58;;;;;;;16.60;10.30;;;;;;;20.68;41.78;100664.52;108106;1287;21998;-60
2023/05/19 03:59:24;;;;;;;14.10;10.60;;;;;;;20.80;41.90;100662.89;108097;1288;21992;-59
2023/05/19 04:01:50;;;;;;;13.60;10.70;;;;;;;20.92;41.97;100656.94;108201;1287;21995;-61
2023/05/19 04:04:16;;;;;;;15.80;11.00;;;;;;;21.07;41.97;100660.47;108112;1287;22034;-59
2023/05/19 04:06:41;;;;;;;15.10;10.80;;;;;;;21.21;41.92;100662.05;108129;1287;21991;-60
2023/05/19 04:09:12;;;;;;;15.30;11.00;;;;;;;21.36;41.94;100660.73;108153;1287;21989;-59
2023/05/19 04:11:39;;;;;;;14.20;10.70;;;;;;;21.56;42.10;100661.13;108130;1288;23769;-59
2023/05/19 04:14:05;;;;;;;13.50;10.70;;;;;;;21.76;42.01;100658.13;108201;1287;23663;-59
2023/05/19 04:16:31;;;;;;;19.70;11.00;;;;;;;21.97;41.86;100654.80;108095;1287;21990;-59
2023/05/19 04:18:56;;;;;;;13.70;10.40;;;;;;;22.18;41.84;100654.73;107975;1288;21994;-59
2023/05/19 04:21:22;;;;;;;16.70;10.70;;;;;;;22.39;41.59;100652.27;108135;1287;21995;-59
2023/05/19 04:23:47;;;;;;;11.90;10.10;;;;;;;22.59;41.38;100654.05;108108;1287;22008;-58
2023/05/19 04:26:13;;;;;;;13.50;10.20;;;;;;;22.76;41.22;100658.02;108172;1287;21997;-59
2023/05/19 04:28:41;;;;;;;14.60;11.30;;;;;;;22.91;40.95;100659.09;108185;1287;21995;-59
2023/05/19 04:31:11;;;;;;;15.00;10.00;;;;;;;23.05;40.73;100664.89;108183;1287;21995;-59
2023/05/19 04:33:38;;;;;;;15.10;11.50;;;;;;;23.16;40.67;100667.09;108119;1287;21980;-59
2023/05/19 04:36:07;;;;;;;16.50;10.70;;;;;;;23.28;40.48;100669.65;108190;1286;21990;-59
2023/05/19 04:38:33;;;;;;;13.80;10.30;;;;;;;23.42;40.51;100677.04;108151;1287;23055;-59
2023/05/19 04:41:00;;;;;;;13.00;9.30;;;;;;;23.58;40.44;100676.21;108145;1287;22024;-59
2023/05/19 04:43:27;;;;;;;14.90;10.20;;;;;;;23.76;40.29;100671.56;108203;1287;21989;-58
2023/05/19 04:45:53;;;;;;;15.20;10.30;;;;;;;23.93;40.31;100674.98;108140;1287;21992;-60
2023/05/19 04:48:22;;;;;;;13.70;10.40;;;;;;;24.11;40.22;100673.80;107537;1287;1002959;-58
2023/05/19 04:50:50;;;;;;;14.40;10.60;;;;;;;24.29;40.02;100674.80;108122;1288;22086;-58
2023/05/19 04:53:16;;;;;;;15.10;10.30;;;;;;;24.55;40.27;100672.04;108178;1287;23823;-59
2023/05/19 04:55:43;;;;;;;14.70;10.20;;;;;;;24.80;39.64;100672.91;108131;1288;21999;-60
2023/05/19 04:58:09;;;;;;;12.10;10.20;;;;;;;24.97;39.13;100672.17;108183;1287;21987;-58
2023/05/19 05:00:36;;;;;;;16.30;10.10;;;;;;;25.09;38.89;100671.35;107450;1287;1002377;-59
2023/05/19 05:03:05;;;;;;;15.50;10.60;;;;;;;25.20;38.51;100674.31;108102;1287;22116;-59
2023/05/19 05:05:31;;;;;;;14.90;9.90;;;;;;;25.32;38.27;100675.09;108161;1287;22026;-59
2023/05/19 05:07:57;;;;;;;14.80;10.10;;;;;;;25.43;38.10;100675.62;108166;1287;22271;-60
2023/05/19 05:10:23;;;;;;;12.70;10.10;;;;;;;25.54;37.84;100677.60;108228;1287;21997;-59
2023/05/19 05:12:49;;;;;;;13.30;9.90;;;;;;;25.59;37.64;100678.99;108131;1287;22242;-60
2023/05/19 05:15:16;;;;;;;12.00;9.90;;;;;;;25.67;37.69;100676.48;108169;1287;21990;-60
2023/05/19 05:17:42;;;;;;;11.70;9.90;;;;;;;25.79;37.66;100676.91;108154;1287;21990;-60
2023/05/19 05:20:10;;;;;;;13.60;9.60;;;;;;;25.96;37.55;100680.34;108270;1287;21992;-59
2023/05/19 05:22:37;;;;;;;16.20;9.80;;;;;;;26.11;37.08;100681.41;108145;1287;21995;-60
2023/05/19 05:25:04;;;;;;;13.60;9.30;;;;;;;26.27;37.14;100683.52;108120;1287;22001;-59
2023/05/19 05:27:30;;;;;;;12.60;9.40;;;;;;;26.46;37.03;100684.99;108193;1287;21995;-59
2023/05/19 05:29:56;;;;;;;12.20;9.60;;;;;;;26.65;36.96;100688.11;108082;1287;21990;-59
2023/05/19 05:32:22;;;;;;;13.30;9.50;;;;;;;26.81;36.71;100685.61;108098;1287;22161;-60
2023/05/19 05:34:49;;;;;;;16.70;9.70;;;;;;;26.95;36.65;100686.42;107833;1287;21994;-59
2023/05/19 05:37:15;;;;;;;13.30;9.10;;;;;;;27.10;36.60;100685.83;108091;1287;21990;-59
2023/05/19 05:39:41;;;;;;;12.80;9.20;;;;;;;27.28;36.54;100682.30;108062;1288;22154;-60
2023/05/19 05:42:07;;;;;;;12.30;9.30;;;;;;;27.48;36.57;100683.44;108084;1287;21996;-59
2023/05/19 05:44:34;;;;;;;12.30;9.00;;;;;;;27.74;36.53;100687.88;108127;1286;21986;-59
2023/05/19 05:47:01;;;;;;;11.70;9.10;;;;;;;27.94;35.98;100690.95;108158;1287;21995;-60
2023/05/19 05:49:27;;;;;;;12.20;8.80;;;;;;;28.08;35.55;100691.48;108143;1287;21990;-59
2023/05/19 05:51:53;;;;;;;14.10;8.80;;;;;;;28.24;35.68;100685.16;108084;1287;21989;-60
2023/05/19 05:54:21;;;;;;;11.30;8.90;;;;;;;28.48;35.40;100682.98;108128;1287;22171;-59
2023/05/19 05:56:48;;;;;;;14.30;9.00;;;;;;;28.69;35.35;100684.70;108106;1287;23131;-60
2023/05/19 05:59:14;;;;;;;15.10;8.80;;;;;;;28.88;35.31;100685.11;108132;1287;21989;-60
2023/05/19 06:01:40;;;;;;;14.90;9.70;;;;;;;29.07;35.03;100684.05;108104;1287;21992;-59
2023/05/19 06:04:06;;;;;;;13.90;9.70;;;;;;;29.25;35.04;100683.56;108136;1287;21987;-59
2023/05/19 06:06:34;;;;;;;11.50;8.10;;;;;;;29.38;34.64;100679.44;108168;1287;21997;-60
2023/05/19 06:09:00;;;;;;;10.20;7.80;;;;;;;29.54;34.50;100676.92;108150;1287;21980;-58
2023/05/19 06:11:27;;;;;;;13.10;8.20;;;;;;;29.73;34.00;100679.78;108092;1287;21993;-58
2023/05/19 06:13:53;;;;;;;15.50;8.10;;;;;;;29.83;33.87;100680.91;108102;1287;21984;-59
2023/05/19 06:16:18;;;;;;;17.20;8.40;;;;;;;29.95;33.83;100679.50;108086;1287;21987;-60
2023/05/19 06:18:45;;;;;;;13.60;8.70;;;;;;;30.13;33.55;100678.59;108095;1287;21995;-59
2023/05/19 06:21:12;;;;;;;10.80;7.50;;;;;;;30.30;33.52;100679.64;108110;1287;21989;-60
2023/05/19 06:23:41;;;;;;;13.60;8.40;;;;;;;30.48;33.28;100680.02;108090;1287;21993;-59
2023/05/19 06:26:07;;;;;;;11.50;7.90;;;;;;;30.62;33.07;100678.13;108121;1287;21995;-61
2023/05/19 06:28:32;;;;;;;10.80;8.20;;;;;;;30.78;33.05;100676.51;108134;1287;21993;-60
2023/05/19 06:30:58;;;;;;;12.30;8.30;;;;;;;30.89;32.60;100669.17;108123;1287;21998;-60
2023/05/19 06:33:25;;;;;;;10.70;7.30;;;;;;;31.00;32.12;100671.79;108167;1287;21988;-59
2023/05/19 06:35:50;;;;;;;14.00;7.00;;;;;;;31.19;32.12;100675.38;108127;1287;22003;-59
2023/05/19 06:38:17;;;;;;;11.00;7.30;;;;;;;31.44;31.97;100681.45;108089;1287;21988;-59
2023/05/19 06:40:42;;;;;;;12.50;7.40;;;;;;;31.62;31.77;100683.66;108093;1287;21989;-59
2023/05/19 06:43:08;;;;;;;9.50;8.00;;;;;;;31.72;31.39;100681.96;108167;1287;22002;-60
2023/05/19 06:45:34;;;;;;;13.30;8.00;;;;;;;31.79;30.49;100680.99;108119;1287;21996;-60
2023/05/19 06:48:00;;;;;;;14.80;7.20;;;;;;;31.88;31.05;100685.70;108090;1287;21998;-59
2023/05/19 06:50:26;;;;;;;10.20;7.30;;;;;;;32.04;31.04;100686.86;108083;1287;21995;-59
2023/05/19 06:52:51;;;;;;;11.10;7.40;;;;;;;32.23;30.90;100689.94;108115;1287;22251;-60
2023/05/19 06:55:17;;;;;;;9.60;7.30;;;;;;;32.35;30.61;100689.69;108158;1287;22456;-59
2023/05/19 06:57:43;;;;;;;8.30;6.60;;;;;;;32.55;30.82;100688.77;108141;1287;21993;-60
2023/05/19 07:00:12;;;;;;;14.00;7.30;;;;;;;32.78;30.63;100688.77;108157;1287;22047;-59
2023/05/19 07:02:38;;;;;;;12.30;7.40;;;;;;;32.89;30.11;100682.05;108119;1287;22000;-59
2023/05/19 07:05:04;;;;;;;13.30;7.50;;;;;;;32.98;30.27;100682.21;108101;1287;21985;-59
2023/05/19 07:07:30;;;;;;;12.00;6.80;;;;;;;33.13;30.15;100681.47;108138;1287;21986;-59
2023/05/19 07:09:56;;;;;;;8.90;7.20;;;;;;;33.30;29.80;100682.81;108116;1287;21989;-59
2023/05/19 07:12:23;;;;;;;10.50;6.70;;;;;;;33.41;29.58;100685.08;108134;1287;22048;-60
2023/05/19 07:14:49;;;;;;;7.40;6.60;;;;;;;33.45;29.66;100686.48;108148;1283;21990;-59
2023/05/19 07:17:15;;;;;;;11.70;7.30;;;;;;;33.49;29.68;100687.77;108101;1287;21987;-60
2023/05/19 07:19:40;;;;;;;11.10;6.90;;;;;;;33.52;29.40;100691.23;108153;1287;22006;-60
2023/05/19 07:22:06;;;;;;;10.60;6.80;;;;;;;33.60;29.43;100689.14;108134;1287;22025;-59
2023/05/19 07:24:32;;;;;;;12.80;6.90;;;;;;;33.69;29.33;100687.63;108120;1280;22002;-60
2023/05/19 07:26:57;;;;;;;10.00;7.00;;;;;;;33.87;29.49;100685.95;108126;1279;21997;-59
2023/05/19 07:29:24;;;;;;;8.80;6.60;;;;;;;34.09;28.76;100687.02;108132;1287;22003;-59
2023/05/19 07:31:52;;;;;;;9.60;6.80;;;;;;;34.20;28.34;100685.89;108147;1287;21992;-61
2023/05/19 07:34:21;;;;;;;9.00;7.20;;;;;;;34.14;28.18;100688.48;108208;1287;21988;-59
2023/05/19 07:36:47;;;;;;;12.90;7.30;;;;;;;33.94;28.26;100685.60;108147;1287;21994;-59
2023/05/19 07:39:12;;;;;;;9.60;6.80;;;;;;;33.76;28.40;100686.42;108138;1283;21986;-60
2023/05/19 07:41:38;;;;;;;10.40;7.30;;;;;;;33.63;28.71;100686.59;108141;1287;21987;-60
2023/05/19 07:44:06;;;;;;;10.40;7.50;;;;;;;33.56;28.89;100682.14;108100;1287;21990;-59
2023/05/19 07:46:33;;;;;;;9.40;7.20;;;;;;;33.64;29.07;100681.60;108189;1287;21991;-59
2023/05/19 07:48:59;;;;;;;9.70;7.10;;;;;;;33.78;28.68;100682.45;108221;1287;22000;-59
2023/05/19 07:51:24;;;;;;;9.30;7.60;;;;;;;33.98;28.46;100678.92;108109;1287;21992;-59
2023/05/19 07:53:50;;;;;;;10.00;6.80;;;;;;;34.34;28.75;100679.98;108111;1287;22003;-60
2023/05/19 07:56:16;;;;;;;11.20;6.60;;;;;;;34.70;28.24;100677.31;108065;1287;21963;-61
2023/05/19 07:58:41;;;;;;;8.10;6.00;;;;;;;34.99;28.43;100677.80;108153;1287;21999;-60
2023/05/19 08:01:07;;;;;;;9.70;6.60;;;;;;;35.30;28.07;100676.60;108249;1287;22469;-59
2023/05/19 08:03:33;;;;;;;8.90;6.10;;;;;;;35.63;27.58;100670.83;108081;1287;21995;-60
2023/05/19 08:05:58;;;;;;;7.40;5.60;;;;;;;35.99;27.41;100676.27;108125;1287;21998;-60
2023/05/19 08:08:24;;;;;;;8.70;6.30;;;;;;;36.28;27.05;100675.65;108099;1283;21992;-59
2023/05/19 08:10:50;;;;;;;8.90;5.40;;;;;;;36.51;26.65;100672.05;108118;1288;21990;-61
2023/05/19 08:13:16;;;;;;;7.80;5.80;;;;;;;36.65;26.43;100669.84;108085;1287;23041;-59
2023/05/19 08:15:41;;;;;;;10.30;6.10;;;;;;;36.80;26.38;100669.30;108143;1288;21994;-59
2023/05/19 08:18:07;;;;;;;8.90;6.20;;;;;;;37.02;26.41;100670.58;108130;1287;21994;-61
2023/05/19 08:20:33;;;;;;;9.20;5.90;;;;;;;37.23;26.06;100666.25;108145;1287;22012;-60
2023/05/19 08:22:58;;;;;;;8.00;6.00;;;;;;;37.35;25.83;100670.48;108109;1287;21991;-60
2023/05/19 08:25:24;;;;;;;6.70;5.50;;;;;;;37.41;25.73;100666.77;108091;1287;21990;-60
2023/05/19 08:27:52;;;;;;;10.40;6.20;;;;;;;37.41;25.38;100667.77;108094;1287;21998;-59
2023/05/19 08:30:17;;;;;;;10.00;5.70;;;;;;;37.41;25.03;100664.44;108156;1287;21989;-59
2023/05/19 08:32:44;;;;;;;6.90;5.40;;;;;;;37.39;24.99;100664.88;108130;1287;21998;-60
2023/05/19 08:35:10;;;;;;;9.30;5.90;;;;;;;37.44;24.56;100661.30;108157;1287;21989;-61
2023/05/19 08:37:37;;;;;;;8.20;5.80;;;;;;;37.54;24.60;100660.09;108140;1287;22506;-61
2023/05/19 08:40:04;;;;;;;7.40;5.50;;;;;;;37.69;24.83;100657.13;108148;1287;21988;-61
2023/05/19 08:42:32;;;;;;;9.10;5.90;;;;;;;37.91;24.97;100652.96;108180;1287;22024;-59
2023/05/19 08:44:58;;;;;;;8.80;5.80;;;;;;;38.19;24.50;100650.08;108212;1287;21988;-61
2023/05/19 08:47:24;;;;;;;7.20;5.60;;;;;;;38.45;24.49;100656.66;108153;1287;21992;-60
2023/05/19 08:49:51;;;;;;;10.40;5.90;;;;;;;38.69;24.47;100659.49;108009;1288;21992;-62
2023/05/19 08:52:56;;;;;;;7.70;5.50;;;;;;;38.91;24.18;100658.39;108173;1288;21984;-60
2023/05/19 08:55:40;;;;;;;8.40;5.60;;;;;;;39.07;23.66;100651.02;107986;1283;184063;-60
2023/05/19 08:58:06;;;;;;;6.90;5.50;;;;;;;39.12;23.20;100647.80;108084;1287;21989;-60
2023/05/19 09:00:33;;;;;;;10.80;5.70;;;;;;;39.19;23.71;100641.20;108002;1288;21992;-60
2023/05/19 09:02:59;;;;;;;14.40;6.10;;;;;;;39.28;23.63;100639.30;107942;1287;21995;-60
2023/05/19 09:05:25;;;;;;;6.20;5.60;;;;;;;39.45;23.57;100645.91;108089;1288;21990;-60
2023/05/19 09:07:51;;;;;;;8.30;5.40;;;;;;;39.57;23.25;100645.61;108137;1287;21991;-60
2023/05/19 09:10:16;;;;;;;6.00;5.20;;;;;;;39.57;23.22;100638.20;108150;1287;21984;-59
2023/05/19 09:12:47;;;;;;;8.00;5.30;;;;;;;39.70;22.88;100637.03;108095;1288;22101;-61
2023/05/19 09:15:16;;;;;;;6.10;4.60;;;;;;;39.79;23.23;100639.34;108180;1287;22300;-60
2023/05/19 09:17:43;;;;;;;6.20;4.70;;;;;;;39.88;22.88;100637.98;108150;1287;22027;-60
2023/05/19 09:20:12;;;;;;;7.30;5.00;;;;;;;39.90;22.77;100637.05;108096;1287;21983;-60
2023/05/19 09:22:46;;;;;;;9.10;4.90;;;;;;;39.73;22.66;100633.42;108168;1287;21990;-61
2023/05/19 09:25:21;;;;;;;7.60;4.50;;;;;;;39.43;22.41;100638.02;108173;1287;22064;-60
2023/05/19 09:27:48;;;;;;;9.50;5.10;;;;;;;39.10;22.33;100640.66;108155;1287;21996;-60
2023/05/19 09:30:15;;;;;;;17.70;4.90;;;;;;;38.76;22.48;100645.02;108157;1287;21998;-60
2023/05/19 09:32:43;;;;;;;7.00;4.40;;;;;;;38.44;22.25;100642.69;108224;1287;22447;-60
2023/05/19 09:35:10;;;;;;;7.50;4.60;;;;;;;38.11;22.40;100641.15;108129;1287;21991;-60
2023/05/19 09:37:38;;;;;;;5.10;4.50;;;;;;;37.79;22.47;100642.21;108313;1287;22026;-60
2023/05/19 09:40:08;;;;;;;11.30;4.90;;;;;;;37.47;22.31;100641.02;108168;1287;21997;-60
2023/05/19 09:42:36;;;;;;;7.30;4.40;;;;;;;37.25;22.56;100639.10;108175;1287;23070;-60
2023/05/19 09:45:02;;;;;;;6.60;4.60;;;;;;;37.23;22.80;100633.98;108132;1289;21987;-60
2023/05/19 09:47:35;;;;;;;6.30;5.10;;;;;;;37.34;22.88;100633.39;108143;1287;22006;-61
2023/05/19 09:50:02;;;;;;;5.80;4.40;;;;;;;37.57;22.70;100625.24;108163;1287;22009;-59
2023/05/19 09:52:28;;;;;;;7.40;3.80;;;;;;;37.83;22.71;100620.98;108001;1287;24326;-60
2023/05/19 09:54:55;;;;;;;8.10;4.40;;;;;;;38.15;22.36;100620.16;108144;1287;21974;-61
2023/05/19 09:57:27;;;;;;;6.10;4.60;;;;;;;38.36;23.22;100624.64;107881;1289;22035;-59
2023/05/19 09:59:55;;;;;;;7.20;5.00;;;;;;;38.52;24.26;100623.48;108134;1288;21990;-61
2023/05/19 10:02:23;;;;;;;7.30;4.30;;;;;;;38.39;23.78;100626.87;108137;1288;22101;-61
2023/05/19 10:04:48;;;;;;;11.00;4.60;;;;;;;38.31;23.83;100623.95;107951;1289;21976;-59
2023/05/19 10:07:14;;;;;;;9.40;4.90;;;;;;;38.37;23.75;100622.90;107786;1287;22024;-60
2023/05/19 10:09:40;;;;;;;17.60;5.60;;;;;;;38.25;23.70;100622.15;107802;1287;22029;-61
2023/05/19 10:12:06;;;;;;;9.80;5.00;;;;;;;38.08;24.28;100625.08;108069;1287;21995;-61
2023/05/19 10:14:32;;;;;;;11.80;5.00;;;;;;;37.81;24.36;100625.29;108102;1288;21999;-61
2023/05/19 10:16:58;;;;;;;7.00;4.50;;;;;;;37.56;24.27;100626.33;108088;1289;21986;-60
2023/05/19 10:19:26;;;;;;;9.70;4.80;;;;;;;37.41;24.54;100622.34;108100;1287;21995;-59
2023/05/19 10:21:52;;;;;;;7.00;4.30;;;;;;;37.48;24.42;100618.78;108121;1287;21984;-60
2023/05/19 10:24:17;;;;;;;6.30;4.70;;;;;;;37.69;24.44;100615.38;108065;1287;21986;-58
2023/05/19 10:27:07;;;;;;;5.80;4.50;;;;;;;38.03;24.52;100612.06;108600;1287;21986;-58
2023/05/19 10:29:42;;;;;;;5.40;4.30;;;;;;;38.43;24.69;100611.98;108129;1287;21997;-59
2023/05/19 10:32:10;;;;;;;8.40;4.40;;;;;;;38.61;24.49;100612.27;108135;1287;22026;-60
2023/05/19 10:34:49;;;;;;;9.90;4.60;;;;;;;38.58;24.12;100610.65;108118;1287;21994;-59
2023/05/19 10:37:24;;;;;;;9.40;4.80;;;;;;;38.43;24.27;100612.58;108176;1287;22021;-59
2023/05/19 10:39:50;;;;;;;12.50;4.80;;;;;;;38.17;23.72;100618.35;108120;1287;21984;-59
2023/05/19 10:42:22;;;;;;;22.10;5.70;;;;;;;37.81;24.07;100631.71;108173;1287;21983;-59
2023/05/19 10:45:07;;;;;;;13.40;5.20;;;;;;;37.04;24.84;100623.13;108017;1287;22004;-58
2023/05/19 10:47:33;;;;;;;11.50;4.40;;;;;;;35.89;26.36;100635.74;108134;1287;22052;-65
2023/05/19 10:49:59;;;;;;;13.00;5.00;;;;;;;34.94;26.55;100643.44;108148;1287;21996;-59
2023/05/19 10:52:25;;;;;;;7.60;4.20;;;;;;;34.18;26.20;100648.94;107881;1288;22003;-66
2023/05/19 10:54:53;;;;;;;6.70;4.10;;;;;;;33.28;31.45;100648.58;108083;1287;21992;-65
2023/05/19 10:57:19;;;;;;;4.90;3.80;;;;;;;32.25;46.46;100654.13;108129;1288;23689;-57
2023/05/19 10:59:48;;;;;;;6.90;4.50;;;;;;;31.73;43.80;100647.83;107928;1288;22024;-57
2023/05/19 11:02:37;;;;;;;5.90;3.90;;;;;;;31.36;42.66;100645.92;108183;1288;23602;-58
2023/05/19 11:05:15;;;;;;;6.80;4.20;;;;;;;31.18;41.50;100643.83;108025;1287;21993;-60
2023/05/19 11:07:46;;;;;;;6.30;4.10;;;;;;;31.19;40.19;100637.55;108271;1287;23116;-61
2023/05/19 11:10:12;;;;;;;5.80;4.30;;;;;;;31.29;38.96;100634.79;108136;1283;22008;-59